Time;durP1;ratioP1;P1;durP2;ratioP2;P2;SDS_P1;SDS_P2;PMS_P1;PMS_P2;Temp;Humidity;BMP_temperature;BMP_pressure;BME280_temperature;BME280_humidity;BME280_pressure;Samples;Min_cycle;Max_cycle;Signal;HPM_P1;HPM_P2
2022/04/21 00:00:52;;;;;;;4.30;1.83;;;;;;;;;;5064563;28;20085;-73
2022/04/21 00:03:18;;;;;;;4.40;2.00;;;;;;;;;;5068341;28;20498;-73
2022/04/21 00:05:44;;;;;;;5.65;2.38;;;;;;;;;;5070006;28;20126;-73
2022/04/21 00:08:11;;;;;;;6.15;1.88;;;;;;;;;;5066583;28;20051;-73
2022/04/21 00:10:37;;;;;;;6.00;2.38;;;;;;;;;;5066127;28;20032;-73
2022/04/21 00:13:03;;;;;;;4.88;2.38;;;;;;;;;;5057884;28;20037;-73
2022/04/21 00:15:29;;;;;;;5.75;2.33;;;;;;;;;;5056066;28;20024;-73
2022/04/21 00:17:55;;;;;;;3.97;1.90;;;;;;;;;;5069057;28;20039;-73
2022/04/21 00:20:21;;;;;;;6.53;2.10;;;;;;;;;;5056384;28;20148;-73
2022/04/21 00:25:32;;;;;;;4.82;2.13;;;;;;;;;;5057716;28;20048;-73
2022/04/21 00:27:58;;;;;;;5.90;2.22;;;;;;;;;;5050609;28;20094;-73
2022/04/21 00:30:24;;;;;;;8.43;2.47;;;;;;;;;;5053885;28;20033;-74
2022/04/21 00:32:50;;;;;;;4.80;2.10;;;;;;;;;;5048288;28;20056;-73
2022/04/21 00:35:17;;;;;;;5.70;2.15;;;;;;;;;;5063772;28;20473;-73
2022/04/21 00:37:54;;;;;;;8.95;2.72;;;;;;;;;;5061075;28;20514;-73
2022/04/21 00:40:21;;;;;;;7.13;2.58;;;;;;;;;;5065921;28;20473;-73
2022/04/21 00:42:47;;;;;;;6.45;2.20;;;;;;;;;;5056622;28;20032;-73
2022/04/21 00:45:13;;;;;;;11.13;2.35;;;;;;;;;;5056681;28;20048;-73
2022/04/21 00:47:42;;;;;;;6.00;2.17;;;;;;;;;;5058075;28;20021;-73
2022/04/21 00:50:13;;;;;;;6.65;2.17;;;;;;;;;;5051148;28;20179;-73
2022/04/21 00:52:39;;;;;;;8.48;2.65;;;;;;;;;;5068014;28;20016;-73
2022/04/21 00:55:06;;;;;;;5.25;2.05;;;;;;;;;;5076207;28;20036;-73
2022/04/21 00:57:33;;;;;;;7.00;2.42;;;;;;;;;;5061479;28;20032;-73
2022/04/21 00:59:59;;;;;;;6.60;2.90;;;;;;;;;;5062472;28;20033;-73
2022/04/21 01:05:11;;;;;;;8.27;2.67;;;;;;;;;;5065485;28;20051;-73
2022/04/21 01:07:37;;;;;;;8.75;2.97;;;;;;;;;;5050343;28;20471;-73
2022/04/21 01:10:03;;;;;;;5.75;2.60;;;;;;;;;;5060345;28;20454;-73
2022/04/21 01:12:30;;;;;;;7.60;2.75;;;;;;;;;;5061338;28;20063;-73
2022/04/21 01:14:56;;;;;;;6.10;2.35;;;;;;;;;;5049320;28;20068;-73
2022/04/21 01:17:33;;;;;;;4.93;2.00;;;;;;;;;;5061280;28;20145;-73
2022/04/21 01:19:59;;;;;;;7.63;2.75;;;;;;;;;;5065257;28;20433;-73
2022/04/21 01:22:25;;;;;;;6.75;2.78;;;;;;;;;;5071120;28;20381;-73
2022/04/21 01:24:51;;;;;;;8.40;2.80;;;;;;;;;;5059347;28;20048;-73
2022/04/21 01:27:17;;;;;;;7.80;2.53;;;;;;;;;;5065172;28;20028;-73
2022/04/21 01:29:43;;;;;;;7.82;2.58;;;;;;;;;;5060191;28;20037;-73
2022/04/21 01:32:10;;;;;;;7.32;2.55;;;;;;;;;;5050022;28;20083;-74
2022/04/21 01:34:38;;;;;;;9.82;2.30;;;;;;;;;;5059083;28;20086;-73
2022/04/21 01:42:33;;;;;;;5.72;1.90;;;;;;;;;;5056165;28;20067;-74
2022/04/21 01:44:59;;;;;;;5.57;1.83;;;;;;;;;;5051738;28;20048;-73
2022/04/21 01:47:25;;;;;;;5.95;1.95;;;;;;;;;;5051719;28;20032;-73
2022/04/21 01:49:51;;;;;;;4.32;1.98;;;;;;;;;;5055053;28;20051;-73
2022/04/21 01:52:17;;;;;;;9.02;2.13;;;;;;;;;;5033214;28;20033;-73
2022/04/21 01:54:44;;;;;;;6.38;2.47;;;;;;;;;;5051380;28;20075;-73
2022/04/21 01:57:10;;;;;;;7.85;2.40;;;;;;;;;;5060968;28;20037;-73
2022/04/21 01:59:36;;;;;;;6.32;2.60;;;;;;;;;;5060428;28;20167;-73
2022/04/21 02:02:02;;;;;;;15.13;4.35;;;;;;;;;;5066204;28;20025;-73
2022/04/21 02:04:29;;;;;;;18.23;5.10;;;;;;;;;;5051451;28;20064;-74
2022/04/21 02:06:55;;;;;;;8.73;3.72;;;;;;;;;;5060628;28;20029;-73
2022/04/21 02:09:21;;;;;;;10.68;3.80;;;;;;;;;;5056225;28;20048;-73
2022/04/21 02:11:47;;;;;;;14.27;4.28;;;;;;;;;;5055932;28;20077;-73
2022/04/21 02:14:13;;;;;;;10.68;3.67;;;;;;;;;;5056894;28;20044;-73
2022/04/21 02:16:39;;;;;;;14.88;6.03;;;;;;;;;;5053349;28;20519;-73
2022/04/21 02:19:05;;;;;;;17.58;7.03;;;;;;;;;;5064714;28;20044;-73
2022/04/21 02:21:31;;;;;;;13.82;6.63;;;;;;;;;;5060376;28;20036;-73
2022/04/21 02:23:57;;;;;;;17.55;9.43;;;;;;;;;;5075008;28;20902;-73
2022/04/21 02:26:23;;;;;;;22.67;12.90;;;;;;;;;;5041353;28;20036;-73
2022/04/21 02:28:49;;;;;;;35.35;17.27;;;;;;;;;;5069378;28;20515;-73
2022/04/21 02:31:15;;;;;;;29.92;15.65;;;;;;;;;;5079210;28;20028;-73
2022/04/21 02:33:41;;;;;;;28.15;15.68;;;;;;;;;;5067900;28;20541;-73
2022/04/21 02:36:07;;;;;;;31.40;17.80;;;;;;;;;;5065872;28;20926;-73
2022/04/21 02:38:33;;;;;;;29.48;15.55;;;;;;;;;;5062372;28;20039;-73
2022/04/21 02:40:59;;;;;;;27.00;14.10;;;;;;;;;;5054878;28;20025;-73
2022/04/21 02:43:25;;;;;;;24.98;11.32;;;;;;;;;;5048386;28;20152;-73
2022/04/21 02:45:51;;;;;;;19.13;10.30;;;;;;;;;;5061927;28;20458;-73
2022/04/21 02:48:17;;;;;;;15.07;8.20;;;;;;;;;;5050810;28;20872;-73
2022/04/21 02:50:43;;;;;;;19.52;8.38;;;;;;;;;;5059043;28;20041;-73
2022/04/21 02:53:10;;;;;;;14.52;7.70;;;;;;;;;;5059106;28;20029;-73
2022/04/21 02:58:22;;;;;;;16.35;6.72;;;;;;;;;;5054845;28;20986;-73
2022/04/21 03:00:49;;;;;;;11.25;5.80;;;;;;;;;;5057434;28;20386;-73
2022/04/21 03:03:15;;;;;;;15.60;6.20;;;;;;;;;;5053408;28;20040;-73
2022/04/21 03:05:42;;;;;;;13.00;5.22;;;;;;;;;;5054669;28;20698;-73
2022/04/21 03:08:08;;;;;;;15.20;4.30;;;;;;;;;;5067868;28;20032;-73
2022/04/21 03:10:34;;;;;;;9.48;3.83;;;;;;;;;;5067307;28;20041;-73
2022/04/21 03:13:00;;;;;;;12.60;3.55;;;;;;;;;;5059979;28;20043;-73
2022/04/21 03:15:26;;;;;;;10.13;3.78;;;;;;;;;;5059571;28;20040;-73
2022/04/21 03:17:52;;;;;;;9.32;3.78;;;;;;;;;;5054762;28;20107;-73
2022/04/21 03:25:47;;;;;;;11.15;3.63;;;;;;;;;;5060469;28;20031;-73
2022/04/21 03:28:13;;;;;;;10.30;4.13;;;;;;;;;;5056212;28;20036;-73
2022/04/21 03:30:39;;;;;;;12.55;5.10;;;;;;;;;;5056585;28;20035;-73
2022/04/21 03:33:05;;;;;;;9.60;4.10;;;;;;;;;;5052195;28;20040;-74
2022/04/21 03:35:31;;;;;;;14.65;3.90;;;;;;;;;;5063249;28;20044;-73
2022/04/21 03:37:57;;;;;;;10.10;3.35;;;;;;;;;;5063929;28;20033;-73
2022/04/21 03:40:23;;;;;;;6.65;3.30;;;;;;;;;;5066960;28;20036;-73
2022/04/21 03:42:49;;;;;;;11.38;2.70;;;;;;;;;;5067048;28;20056;-73
2022/04/21 03:45:15;;;;;;;7.38;2.30;;;;;;;;;;5070329;28;20051;-73
2022/04/21 03:47:41;;;;;;;8.23;1.98;;;;;;;;;;5068683;28;20028;-73
2022/04/21 03:50:08;;;;;;;8.50;2.15;;;;;;;;;;5068314;28;20839;-73
2022/04/21 03:52:34;;;;;;;6.40;2.47;;;;;;;;;;5067153;28;20032;-73
2022/04/21 03:55:00;;;;;;;7.45;2.35;;;;;;;;;;5073083;28;20036;-73
2022/04/21 03:57:27;;;;;;;5.65;2.15;;;;;;;;;;5066423;28;20025;-73
2022/04/21 03:59:53;;;;;;;7.75;2.35;;;;;;;;;;5070299;28;20119;-73
2022/04/21 04:02:19;;;;;;;5.55;2.22;;;;;;;;;;5066429;28;20029;-73
2022/04/21 04:04:45;;;;;;;6.22;2.65;;;;;;;;;;5056320;28;20032;-73
2022/04/21 04:12:41;;;;;;;8.95;2.97;;;;;;;;;;5067024;28;20059;-73
2022/04/21 04:15:07;;;;;;;8.20;2.97;;;;;;;;;;5063238;28;20418;-73
2022/04/21 04:17:34;;;;;;;13.30;3.50;;;;;;;;;;5068338;28;20039;-73
2022/04/21 04:20:00;;;;;;;9.88;4.03;;;;;;;;;;5058920;28;20074;-73
2022/04/21 04:22:26;;;;;;;6.53;2.83;;;;;;;;;;5062287;28;20032;-73
2022/04/21 04:24:56;;;;;;;8.13;3.83;;;;;;;;;;5064168;28;20107;-73
2022/04/21 04:27:22;;;;;;;12.23;4.22;;;;;;;;;;5055192;28;20124;-73
2022/04/21 04:29:48;;;;;;;7.55;3.63;;;;;;;;;;5069154;28;20043;-73
2022/04/21 04:32:17;;;;;;;12.20;4.15;;;;;;;;;;5070001;28;20041;-73
2022/04/21 04:34:44;;;;;;;13.18;3.88;;;;;;;;;;5064037;28;20102;-73
2022/04/21 04:37:10;;;;;;;8.23;3.13;;;;;;;;;;5069495;28;20039;-73
2022/04/21 04:39:36;;;;;;;9.88;4.13;;;;;;;;;;5065091;28;20351;-73
2022/04/21 04:42:17;;;;;;;9.38;3.63;;;;;;;;;;5068650;28;20058;-73
2022/04/21 04:44:44;;;;;;;7.68;2.95;;;;;;;;;;5054936;28;20060;-73
2022/04/21 04:47:10;;;;;;;7.95;3.30;;;;;;;;;;5069606;28;20024;-73
2022/04/21 04:49:36;;;;;;;12.38;4.07;;;;;;;;;;5056469;28;20044;-73
2022/04/21 04:52:02;;;;;;;10.25;3.42;;;;;;;;;;5064475;28;20108;-73
2022/04/21 04:54:29;;;;;;;16.92;3.92;;;;;;;;;;5060620;28;20036;-73
2022/04/21 04:56:56;;;;;;;11.90;4.13;;;;;;;;;;5068025;28;20028;-73
2022/04/21 04:59:22;;;;;;;14.90;3.97;;;;;;;;;;5069768;28;20043;-73
2022/04/21 05:01:48;;;;;;;12.73;4.63;;;;;;;;;;5065995;28;20028;-73
2022/04/21 05:04:18;;;;;;;9.52;4.30;;;;;;;;;;5068936;28;20028;-73
2022/04/21 05:06:48;;;;;;;12.38;3.95;;;;;;;;;;5063227;28;20166;-73
2022/04/21 05:09:19;;;;;;;9.20;4.28;;;;;;;;;;5069089;28;20063;-73
2022/04/21 05:11:50;;;;;;;12.57;4.07;;;;;;;;;;5070017;28;20469;-73
2022/04/21 05:14:17;;;;;;;12.13;3.80;;;;;;;;;;5068573;28;20177;-73
2022/04/21 05:16:43;;;;;;;11.35;5.00;;;;;;;;;;5059744;28;20023;-73
2022/04/21 05:19:10;;;;;;;10.68;5.10;;;;;;;;;;5061397;28;20112;-73
2022/04/21 05:21:36;;;;;;;11.60;5.45;;;;;;;;;;5063331;28;20025;-73
2022/04/21 05:24:03;;;;;;;18.55;5.88;;;;;;;;;;5066172;28;20120;-73
2022/04/21 05:26:30;;;;;;;10.82;5.10;;;;;;;;;;5064030;28;20401;-73
2022/04/21 05:28:56;;;;;;;12.38;5.07;;;;;;;;;;5067759;28;20064;-73
2022/04/21 05:31:23;;;;;;;18.35;5.10;;;;;;;;;;5045662;28;20671;-73
2022/04/21 05:33:49;;;;;;;14.77;5.10;;;;;;;;;;5067670;28;20037;-73
2022/04/21 05:36:16;;;;;;;10.07;5.85;;;;;;;;;;5058009;28;20032;-73
2022/04/21 05:38:42;;;;;;;15.13;5.90;;;;;;;;;;5063582;28;20443;-73
2022/04/21 05:41:08;;;;;;;16.05;6.40;;;;;;;;;;5064512;28;20554;-73
2022/04/21 05:43:34;;;;;;;16.13;5.70;;;;;;;;;;5039011;28;20044;-74
2022/04/21 05:46:00;;;;;;;13.70;5.90;;;;;;;;;;5048142;28;20074;-73
2022/04/21 05:48:26;;;;;;;21.02;5.85;;;;;;;;;;5043056;28;20435;-73
2022/04/21 05:50:53;;;;;;;17.42;5.30;;;;;;;;;;5046802;28;20056;-72
2022/04/21 05:53:23;;;;;;;18.10;5.50;;;;;;;;;;5040870;28;20025;-73
2022/04/21 05:55:49;;;;;;;16.95;5.70;;;;;;;;;;5045448;28;20060;-73
2022/04/21 05:58:15;;;;;;;15.73;4.75;;;;;;;;;;5043576;28;20042;-73
2022/04/21 06:00:41;;;;;;;13.88;4.78;;;;;;;;;;5035980;28;20036;-73
2022/04/21 06:03:08;;;;;;;16.80;6.00;;;;;;;;;;5033980;28;20131;-73
2022/04/21 06:05:34;;;;;;;15.70;5.95;;;;;;;;;;5037949;28;20021;-73
2022/04/21 06:08:00;;;;;;;13.70;5.43;;;;;;;;;;5039380;28;20051;-73
2022/04/21 06:10:26;;;;;;;18.00;5.63;;;;;;;;;;5037461;28;20029;-73
2022/04/21 06:12:53;;;;;;;14.57;5.70;;;;;;;;;;5039097;28;20057;-73
2022/04/21 06:15:19;;;;;;;16.70;6.82;;;;;;;;;;5032219;28;20366;-73
2022/04/21 06:17:46;;;;;;;17.27;6.55;;;;;;;;;;5039059;28;20042;-73
2022/04/21 06:20:12;;;;;;;19.92;6.78;;;;;;;;;;5041502;28;20037;-73
2022/04/21 06:22:38;;;;;;;18.02;6.72;;;;;;;;;;5045742;28;20033;-73
2022/04/21 06:25:04;;;;;;;17.85;4.78;;;;;;;;;;5037095;28;20052;-73
2022/04/21 06:27:30;;;;;;;13.23;5.10;;;;;;;;;;5041205;28;20025;-72
2022/04/21 06:29:56;;;;;;;18.73;6.47;;;;;;;;;;5047303;28;20071;-73
2022/04/21 06:32:24;;;;;;;15.73;5.75;;;;;;;;;;5046423;28;20048;-73
2022/04/21 06:34:50;;;;;;;18.38;7.32;;;;;;;;;;5047392;28;20039;-73
2022/04/21 06:37:16;;;;;;;14.00;6.18;;;;;;;;;;5046673;28;20114;-73
2022/04/21 06:39:42;;;;;;;16.42;7.20;;;;;;;;;;5042973;28;20099;-73
2022/04/21 06:42:08;;;;;;;14.05;6.97;;;;;;;;;;5049087;28;20033;-73
2022/04/21 06:50:17;;;;;;;16.63;6.25;;;;;;;;;;5067734;28;20090;-73
2022/04/21 06:52:43;;;;;;;18.08;6.63;;;;;;;;;;5070516;28;20028;-73
2022/04/21 06:55:09;;;;;;;16.88;5.93;;;;;;;;;;5071069;28;20029;-73
2022/04/21 06:57:35;;;;;;;11.80;5.05;;;;;;;;;;5066854;28;20032;-73
2022/04/21 07:00:02;;;;;;;12.02;5.60;;;;;;;;;;5067458;28;20040;-73
2022/04/21 07:02:31;;;;;;;17.90;5.55;;;;;;;;;;5070070;28;20032;-73
2022/04/21 07:05:07;;;;;;;16.63;5.60;;;;;;;;;;5069552;28;20063;-73
2022/04/21 07:07:33;;;;;;;13.20;5.40;;;;;;;;;;5064933;28;20707;-73
2022/04/21 07:10:00;;;;;;;15.07;5.97;;;;;;;;;;5069599;28;20040;-73
2022/04/21 07:12:29;;;;;;;17.48;6.43;;;;;;;;;;5066178;28;20020;-73
2022/04/21 07:14:59;;;;;;;18.80;6.53;;;;;;;;;;5061981;28;20149;-73
2022/04/21 07:17:25;;;;;;;13.10;6.10;;;;;;;;;;5063745;28;20032;-73
2022/04/21 07:19:52;;;;;;;14.48;5.90;;;;;;;;;;5062858;28;20139;-73
2022/04/21 07:22:22;;;;;;;12.55;5.40;;;;;;;;;;5065489;28;20414;-73
2022/04/21 07:24:48;;;;;;;14.43;5.70;;;;;;;;;;5067599;28;20094;-73
2022/04/21 07:27:14;;;;;;;9.15;4.80;;;;;;;;;;5070674;28;20473;-73
2022/04/21 07:29:40;;;;;;;11.07;4.90;;;;;;;;;;5069762;28;20036;-73
2022/04/21 07:32:06;;;;;;;9.10;4.63;;;;;;;;;;5069755;28;20081;-73
2022/04/21 07:34:32;;;;;;;8.75;4.57;;;;;;;;;;5071345;28;20690;-73
2022/04/21 07:36:58;;;;;;;8.73;4.05;;;;;;;;;;5065245;28;20033;-73
2022/04/21 07:39:24;;;;;;;13.85;5.78;;;;;;;;;;5069463;28;20040;-73
2022/04/21 07:41:51;;;;;;;10.77;5.15;;;;;;;;;;5068307;28;20533;-73
2022/04/21 07:44:17;;;;;;;12.10;5.13;;;;;;;;;;5068981;28;20076;-73
2022/04/21 07:46:43;;;;;;;13.73;6.35;;;;;;;;;;5068620;28;20524;-73
2022/04/21 07:53:12;;;;;;;13.40;5.85;;;;;;;;;;5068934;28;20595;-73
2022/04/21 07:54:40;;;;;;;13.75;5.57;;;;;;;;;;5068526;28;20076;-73
2022/04/21 07:57:06;;;;;;;16.75;6.10;;;;;;;;;;5069052;28;20889;-73
2022/04/21 07:59:32;;;;;;;13.00;5.30;;;;;;;;;;5061054;28;20037;-73
2022/04/21 08:01:58;;;;;;;12.82;5.72;;;;;;;;;;5066880;28;20351;-73
2022/04/21 08:04:24;;;;;;;18.77;6.20;;;;;;;;;;5069925;28;20041;-73
2022/04/21 08:06:50;;;;;;;16.92;6.95;;;;;;;;;;5066204;28;20107;-73
2022/04/21 08:09:16;;;;;;;14.65;6.28;;;;;;;;;;5062661;28;20037;-73
2022/04/21 08:11:42;;;;;;;16.45;6.53;;;;;;;;;;5067436;28;20365;-73
2022/04/21 08:14:08;;;;;;;13.93;6.20;;;;;;;;;;5067097;28;20135;-73
2022/04/21 08:16:34;;;;;;;13.57;6.65;;;;;;;;;;5067637;28;20161;-73
2022/04/21 08:19:00;;;;;;;12.32;6.18;;;;;;;;;;5058235;28;20433;-73
2022/04/21 08:21:26;;;;;;;15.90;6.80;;;;;;;;;;5068145;28;20041;-73
2022/04/21 08:23:52;;;;;;;14.15;7.07;;;;;;;;;;5067806;28;20047;-73
2022/04/21 08:34:32;;;;;;;16.80;6.63;;;;;;;;;;5067070;28;20055;-73
2022/04/21 08:36:59;;;;;;;10.88;5.95;;;;;;;;;;5065854;28;20037;-73
2022/04/21 08:39:25;;;;;;;17.90;6.68;;;;;;;;;;5068968;28;20056;-73
2022/04/21 08:41:58;;;;;;;11.82;5.30;;;;;;;;;;5068160;28;20064;-73
2022/04/21 08:44:24;;;;;;;12.05;5.80;;;;;;;;;;5065730;28;20055;-73
2022/04/21 08:46:51;;;;;;;12.70;5.45;;;;;;;;;;5055855;28;20021;-73
2022/04/21 08:49:21;;;;;;;17.15;6.22;;;;;;;;;;5050197;28;20040;-73
2022/04/21 08:51:48;;;;;;;17.38;6.30;;;;;;;;;;5063535;28;20013;-73
2022/04/21 08:54:14;;;;;;;12.88;6.90;;;;;;;;;;5065052;28;20068;-73
2022/04/21 08:56:41;;;;;;;10.00;5.65;;;;;;;;;;5047483;28;20052;-73
2022/04/21 08:59:07;;;;;;;14.30;4.97;;;;;;;;;;5057663;28;20592;-73
2022/04/21 09:01:33;;;;;;;11.15;4.82;;;;;;;;;;5062993;28;20116;-73
2022/04/21 09:04:00;;;;;;;9.93;4.93;;;;;;;;;;5066340;28;20037;-73
2022/04/21 09:06:27;;;;;;;9.65;5.28;;;;;;;;;;5067689;28;20427;-73
2022/04/21 09:09:12;;;;;;;10.52;5.15;;;;;;;;;;5062934;28;20039;-73
2022/04/21 09:11:38;;;;;;;12.43;4.85;;;;;;;;;;5063895;28;20047;-73
2022/04/21 09:14:04;;;;;;;14.90;5.07;;;;;;;;;;5063002;28;20040;-73
2022/04/21 09:16:36;;;;;;;11.65;4.75;;;;;;;;;;5068479;28;20083;-73
2022/04/21 09:19:02;;;;;;;11.27;4.68;;;;;;;;;;5066497;28;20041;-73
2022/04/21 09:21:35;;;;;;;13.63;5.22;;;;;;;;;;5067946;28;20752;-73
2022/04/21 09:24:01;;;;;;;9.80;5.07;;;;;;;;;;5068791;28;20047;-73
2022/04/21 09:26:27;;;;;;;9.38;4.40;;;;;;;;;;5062261;28;20028;-73
2022/04/21 09:28:57;;;;;;;12.05;5.22;;;;;;;;;;5067352;28;20068;-73
2022/04/21 09:31:24;;;;;;;9.15;5.55;;;;;;;;;;5046770;28;20378;-73
2022/04/21 09:33:51;;;;;;;13.90;5.75;;;;;;;;;;5063209;28;20070;-73
2022/04/21 09:36:18;;;;;;;9.27;4.93;;;;;;;;;;5048227;28;20136;-73
2022/04/21 09:38:56;;;;;;;8.55;4.68;;;;;;;;;;5049664;28;20032;-73
2022/04/21 09:41:28;;;;;;;9.65;4.65;;;;;;;;;;5063642;28;20044;-73
2022/04/21 09:43:55;;;;;;;7.30;4.90;;;;;;;;;;5067205;28;20056;-73
2022/04/21 09:46:22;;;;;;;19.55;5.30;;;;;;;;;;5066690;28;20979;-73
2022/04/21 09:48:54;;;;;;;10.85;5.50;;;;;;;;;;5067404;28;20078;-74
2022/04/21 09:51:21;;;;;;;;;;;;;;;;;;5060112;28;20079;-73
2022/04/21 09:53:53;;;;;;;13.57;5.63;;;;;;;;;;5067891;28;19969;-73
2022/04/21 09:56:30;;;;;;;12.82;5.72;;;;;;;;;;5061925;28;20071;-73
2022/04/21 09:58:56;;;;;;;10.38;5.47;;;;;;;;;;5063564;28;20032;-73
2022/04/21 10:01:22;;;;;;;13.00;5.75;;;;;;;;;;5065768;28;21041;-73
2022/04/21 10:03:49;;;;;;;9.25;5.10;;;;;;;;;;5067933;28;20043;-73
2022/04/21 10:06:16;;;;;;;12.82;5.53;;;;;;;;;;5066546;28;20033;-73
2022/04/21 10:08:43;;;;;;;11.18;5.47;;;;;;;;;;5058540;28;20116;-73
2022/04/21 10:11:10;;;;;;;8.88;5.25;;;;;;;;;;5067537;28;20060;-73
2022/04/21 10:13:36;;;;;;;11.38;5.30;;;;;;;;;;5063025;28;20477;-73
2022/04/21 10:16:02;;;;;;;17.70;5.25;;;;;;;;;;5066384;28;20037;-73
2022/04/21 10:18:29;;;;;;;10.48;5.07;;;;;;;;;;5061706;28;20570;-73
2022/04/21 10:20:55;;;;;;;10.00;5.28;;;;;;;;;;5065949;28;20024;-73
2022/04/21 10:23:22;;;;;;;9.15;6.05;;;;;;;;;;5066558;28;20036;-74
2022/04/21 10:25:58;;;;;;;12.52;4.68;;;;;;;;;;5066783;28;20039;-73
2022/04/21 10:28:39;;;;;;;8.75;5.55;;;;;;;;;;5062035;28;20062;-73
2022/04/21 10:31:38;;;;;;;10.80;4.55;;;;;;;;;;5065335;28;20031;-73
2022/04/21 10:34:07;;;;;;;10.48;4.68;;;;;;;;;;5014587;28;20060;-73
2022/04/21 10:36:33;;;;;;;9.43;4.90;;;;;;;;;;5066103;28;20378;-74
2022/04/21 10:39:12;;;;;;;11.95;5.13;;;;;;;;;;5065227;28;20484;-73
2022/04/21 10:41:39;;;;;;;8.57;4.97;;;;;;;;;;5066627;28;20608;-74
2022/04/21 10:44:12;;;;;;;10.27;5.00;;;;;;;;;;5058620;28;20041;-73
2022/04/21 10:46:38;;;;;;;9.27;5.25;;;;;;;;;;5065858;28;20039;-73
2022/04/21 10:49:04;;;;;;;10.20;5.57;;;;;;;;;;5066016;28;20028;-73
2022/04/21 10:57:31;;;;;;;15.65;5.40;;;;;;;;;;5065681;28;20048;-73
2022/04/21 10:59:57;;;;;;;12.68;5.07;;;;;;;;;;5062589;28;20503;-74
2022/04/21 11:02:37;;;;;;;8.68;5.40;;;;;;;;;;5066766;28;20466;-73
2022/04/21 11:05:23;;;;;;;9.35;5.03;;;;;;;;;;5064479;28;20029;-73
2022/04/21 11:07:56;;;;;;;8.38;4.78;;;;;;;;;;5063545;28;20465;-73
2022/04/21 11:10:37;;;;;;;12.10;5.20;;;;;;;;;;5061677;28;20470;-74
2022/04/21 11:13:04;;;;;;;8.23;4.85;;;;;;;;;;5062537;28;20576;-73
2022/04/21 11:15:33;;;;;;;11.27;5.03;;;;;;;;;;5064211;28;20028;-73
2022/04/21 11:18:22;;;;;;;11.77;5.28;;;;;;;;;;5065642;28;20082;-73
2022/04/21 11:20:49;;;;;;;12.18;5.43;;;;;;;;;;5051191;28;20128;-73
2022/04/21 11:23:25;;;;;;;12.80;5.75;;;;;;;;;;5066080;28;20086;-74
2022/04/21 11:25:52;;;;;;;8.95;4.97;;;;;;;;;;5057796;28;20065;-74
2022/04/21 11:28:24;;;;;;;11.35;5.57;;;;;;;;;;5069924;28;20492;-73
2022/04/21 11:30:56;;;;;;;12.00;5.18;;;;;;;;;;5067072;28;20029;-74
2022/04/21 11:33:22;;;;;;;;;;;;;;;;;;5069402;28;20037;-74
2022/04/21 11:35:49;;;;;;;15.15;5.75;;;;;;;;;;5064762;28;19922;-74
2022/04/21 11:38:15;;;;;;;16.25;5.75;;;;;;;;;;5068855;28;20037;-73
2022/04/21 11:40:41;;;;;;;8.50;5.40;;;;;;;;;;5069746;28;20036;-74
2022/04/21 11:43:13;;;;;;;16.50;6.20;;;;;;;;;;5062075;28;20044;-73
2022/04/21 11:45:41;;;;;;;14.32;5.03;;;;;;;;;;5069579;28;20048;-73
2022/04/21 11:48:18;;;;;;;15.50;5.65;;;;;;;;;;5064417;28;20032;-73
2022/04/21 11:50:49;;;;;;;15.13;6.10;;;;;;;;;;5065167;28;20036;-73
2022/04/21 11:53:18;;;;;;;9.15;5.25;;;;;;;;;;5064437;28;20036;-73
2022/04/21 11:55:45;;;;;;;9.95;4.95;;;;;;;;;;5070307;28;20036;-74
2022/04/21 11:58:11;;;;;;;9.52;5.30;;;;;;;;;;5059927;28;20136;-73
2022/04/21 12:08:52;;;;;;;10.00;5.20;;;;;;;;;;5066791;28;20044;-73
2022/04/21 12:11:19;;;;;;;8.95;5.00;;;;;;;;;;5072843;28;20040;-74
2022/04/21 12:13:47;;;;;;;14.77;5.82;;;;;;;;;;5063054;28;20047;-74
2022/04/21 12:16:31;;;;;;;15.15;5.45;;;;;;;;;;5066332;28;20047;-73
2022/04/21 12:18:57;;;;;;;11.18;5.10;;;;;;;;;;5046215;28;20134;-74
2022/04/21 12:21:43;;;;;;;14.57;5.32;;;;;;;;;;5063091;28;20143;-73
2022/04/21 12:24:17;;;;;;;10.93;4.93;;;;;;;;;;5065803;28;20482;-73
2022/04/21 12:26:53;;;;;;;12.95;5.63;;;;;;;;;;5067431;28;20137;-73
2022/04/21 12:29:19;;;;;;;11.52;5.10;;;;;;;;;;5066467;28;20542;-74
2022/04/21 12:31:53;;;;;;;8.48;5.05;;;;;;;;;;5062479;28;20565;-73
2022/04/21 12:34:22;;;;;;;11.55;5.30;;;;;;;;;;5062343;28;20040;-73
2022/04/21 12:36:52;;;;;;;10.80;4.72;;;;;;;;;;5060397;28;20103;-73
2022/04/21 12:39:19;;;;;;;12.73;4.93;;;;;;;;;;5068737;28;20041;-73
2022/04/21 12:41:46;;;;;;;9.90;5.32;;;;;;;;;;5060890;28;20032;-74
2022/04/21 12:44:12;;;;;;;10.35;4.97;;;;;;;;;;5060800;28;20079;-74
2022/04/21 12:46:41;;;;;;;11.18;5.65;;;;;;;;;;5061226;28;20036;-73
2022/04/21 12:49:07;;;;;;;13.80;4.78;;;;;;;;;;5064177;28;20025;-73
2022/04/21 12:51:33;;;;;;;17.00;5.57;;;;;;;;;;5062416;28;20425;-73
2022/04/21 12:53:59;;;;;;;14.00;5.07;;;;;;;;;;5063488;28;20481;-74
2022/04/21 12:56:34;;;;;;;9.90;4.07;;;;;;;;;;5067573;28;20683;-74
2022/04/21 12:59:00;;;;;;;8.55;4.05;;;;;;;;;;5062881;28;20045;-74
2022/04/21 13:01:26;;;;;;;8.77;3.80;;;;;;;;;;5060326;28;20466;-74
2022/04/21 13:03:52;;;;;;;10.52;4.40;;;;;;;;;;5068469;28;20417;-74
2022/04/21 13:06:28;;;;;;;11.40;4.07;;;;;;;;;;5067760;28;20061;-74
2022/04/21 13:08:55;;;;;;;9.10;3.40;;;;;;;;;;5067081;28;20037;-74
2022/04/21 13:11:21;;;;;;;8.55;3.78;;;;;;;;;;5064433;28;20064;-74
2022/04/21 13:13:47;;;;;;;9.20;3.95;;;;;;;;;;5066928;28;20036;-74
2022/04/21 13:16:13;;;;;;;11.00;3.72;;;;;;;;;;5066906;28;20722;-74
2022/04/21 13:18:39;;;;;;;6.53;3.30;;;;;;;;;;5059554;28;20037;-74
2022/04/21 13:23:50;;;;;;;14.73;3.90;;;;;;;;;;5066614;28;20553;-74
2022/04/21 13:26:16;;;;;;;11.73;4.68;;;;;;;;;;5063438;28;20100;-74
2022/04/21 13:28:43;;;;;;;8.93;3.58;;;;;;;;;;5062132;28;20047;-74
2022/04/21 13:33:54;;;;;;;11.95;3.83;;;;;;;;;;5066664;28;20059;-73
2022/04/21 13:36:20;;;;;;;12.60;4.07;;;;;;;;;;5059324;28;20808;-74
2022/04/21 13:38:46;;;;;;;9.02;3.70;;;;;;;;;;5065486;28;20033;-74
2022/04/21 13:41:12;;;;;;;12.85;4.82;;;;;;;;;;5060635;28;20079;-74
2022/04/21 13:43:38;;;;;;;12.90;4.38;;;;;;;;;;5065492;28;20441;-74
2022/04/21 13:46:04;;;;;;;7.65;4.15;;;;;;;;;;5062349;28;20059;-74
2022/04/21 13:48:30;;;;;;;8.20;3.17;;;;;;;;;;5063450;28;20036;-73
2022/04/21 13:50:56;;;;;;;12.40;4.40;;;;;;;;;;5062311;28;20032;-74
2022/04/21 13:53:22;;;;;;;11.05;4.22;;;;;;;;;;5066458;28;20044;-74
2022/04/21 13:55:49;;;;;;;8.98;3.58;;;;;;;;;;5063700;28;20089;-74
2022/04/21 13:58:15;;;;;;;10.68;3.83;;;;;;;;;;5062799;28;20067;-73
2022/04/21 14:00:45;;;;;;;8.10;3.20;;;;;;;;;;5061889;28;20031;-74
2022/04/21 14:03:12;;;;;;;9.32;3.08;;;;;;;;;;5066878;28;20033;-74
2022/04/21 14:05:39;;;;;;;6.43;3.30;;;;;;;;;;5063301;28;20020;-74
2022/04/21 14:08:05;;;;;;;9.13;3.60;;;;;;;;;;5066074;28;20032;-74
2022/04/21 14:10:31;;;;;;;7.15;2.50;;;;;;;;;;5060444;28;20404;-74
2022/04/21 14:12:57;;;;;;;9.27;2.67;;;;;;;;;;5062761;28;20109;-74
2022/04/21 14:15:24;;;;;;;6.18;2.38;;;;;;;;;;5062545;28;20033;-74
2022/04/21 14:17:50;;;;;;;4.97;1.50;;;;;;;;;;5063627;28;20044;-74
2022/04/21 14:20:16;;;;;;;5.97;3.05;;;;;;;;;;5059787;28;20032;-74
2022/04/21 14:22:42;;;;;;;9.65;2.42;;;;;;;;;;5064157;28;20047;-74
2022/04/21 14:25:08;;;;;;;9.00;2.42;;;;;;;;;;5066646;28;20029;-74
2022/04/21 14:27:34;;;;;;;10.02;2.70;;;;;;;;;;5066743;28;20035;-74
2022/04/21 14:30:01;;;;;;;6.32;2.65;;;;;;;;;;5067071;28;20036;-74
2022/04/21 14:32:27;;;;;;;4.30;2.05;;;;;;;;;;5035735;28;20037;-74
2022/04/21 14:34:53;;;;;;;11.40;2.72;;;;;;;;;;5046964;28;20033;-74
2022/04/21 14:44:04;;;;;;;5.78;2.78;;;;;;;;;;5063212;28;20062;-74
2022/04/21 14:45:35;;;;;;;8.38;2.25;;;;;;;;;;5062727;28;20051;-74
2022/04/21 14:48:01;;;;;;;5.07;1.60;;;;;;;;;;5059407;28;20043;-74
2022/04/21 14:50:27;;;;;;;7.15;1.92;;;;;;;;;;5055138;28;20398;-74
2022/04/21 14:52:53;;;;;;;6.18;1.67;;;;;;;;;;5066466;28;20040;-74
2022/04/21 14:55:19;;;;;;;11.88;2.80;;;;;;;;;;5066101;28;20106;-74
2022/04/21 14:57:45;;;;;;;8.65;2.67;;;;;;;;;;5063173;28;20067;-74
2022/04/21 15:00:12;;;;;;;5.57;1.92;;;;;;;;;;5066955;28;20063;-74
2022/04/21 15:02:38;;;;;;;8.18;2.40;;;;;;;;;;5070421;28;20033;-74
2022/04/21 15:05:04;;;;;;;8.70;2.55;;;;;;;;;;5062297;28;20020;-74
2022/04/21 15:07:30;;;;;;;6.65;2.30;;;;;;;;;;5040945;28;20036;-74
2022/04/21 15:09:56;;;;;;;6.07;2.00;;;;;;;;;;5064720;28;20050;-74
2022/04/21 15:12:22;;;;;;;7.43;2.33;;;;;;;;;;5068190;28;20044;-74
2022/04/21 15:14:49;;;;;;;6.38;2.63;;;;;;;;;;5065903;28;20032;-74
2022/04/21 15:17:15;;;;;;;10.15;2.67;;;;;;;;;;5069949;28;20055;-74
2022/04/21 15:19:44;;;;;;;5.10;1.95;;;;;;;;;;5069247;28;20469;-74
2022/04/21 15:22:10;;;;;;;5.25;2.33;;;;;;;;;;5049606;28;20032;-74
2022/04/21 15:24:36;;;;;;;6.72;2.22;;;;;;;;;;5069914;28;20033;-74
2022/04/21 15:27:02;;;;;;;5.20;2.08;;;;;;;;;;5069074;28;20048;-74
2022/04/21 15:29:28;;;;;;;6.55;2.70;;;;;;;;;;5066500;28;20030;-74
2022/04/21 15:31:54;;;;;;;7.65;2.70;;;;;;;;;;5067995;28;20033;-74
2022/04/21 15:34:20;;;;;;;6.55;2.22;;;;;;;;;;5063054;28;20033;-74
2022/04/21 15:36:46;;;;;;;8.50;2.22;;;;;;;;;;5068239;28;20115;-74
2022/04/21 15:39:13;;;;;;;5.90;2.40;;;;;;;;;;5064465;28;20403;-74
2022/04/21 15:41:39;;;;;;;8.57;2.33;;;;;;;;;;5064131;28;20036;-74
2022/04/21 15:44:05;;;;;;;12.60;2.95;;;;;;;;;;5069029;28;20051;-74